Maun, Botswana
Current Conditions -  °F | °C
As of 1:00 AM on Thursday 23 Oct 2014 (Local Time) from FBMN Reporting Station
Clear Clear  
Wind Chill: 75°   Ceiling: Unl
Heat Index: 75°   Visibility: 6mi
Dew Point: 36°   Wind: 0mph
Humidity: 24%   Direction: NA
Pressure: 30"   Gusts: NA
Location:  19.99°S, 23.42°E
Report Text: FBMN 222300Z 00000KT CAVOK 24/02 Q1016
Loading
Personal Weather Stations






























Interactive Weather Map
Tropical Storm Tracking
New forecast layout! Learn more

10-Day Weather Forecast

Advertisements
Track Severe Weather on mobile